PWSweather.com
Personal Weather Stations
Station Observations
IBRABANT12
Leuven, BlandenBE 3052

LeuvenBlandenBE 3052

Lat: 50.8252218, Lon: 4.709682799999996

Elevation: 193

Station Type: Davis Vantage Vue

http://www.weerstationblanden.be

Latest ConditionsUpdated 4:10:10 AM GMT+01:01 Tuesday, Feb 9, 2016
Currently Today's Max Today's Min Today's Average
Temperature 43.2°F6.2°C 45.1°F7.3°C 42.9°F6.1°C 44.6°F7.0°C
Dew Point 40.2°F4.6°C 40.2°F4.6°C 38.1°F3.4°C 38.8°F3.8°C
Winds 10.9 mph S17.5 kmh S 20.9 mph SW33.6 kmh SW - 16.3 mph 26.2 kmh
Wind Gusts 13.0 mph20.9 kmh 31.0 mph49.9 kmh - -
Humidity 89% 90% 77% 80%
Pressure 29.42 in996.3 mb 29.44 in997.0 mb 29.42 in996.3 mb -
Hour Temp Dew Point Humidity Winds Wind Gusts Pressure Precip Precip Rate Daily Precip Total
04:10 AM 43.2°F6.2°C 40.2°F4.6°C 89% 10.9 mph S17.5 kmh S 13.0 mph20.9 kmh 29.42 in996.3 mb - 0.00 in0.0 mm 0.00 in0.0 mm
04:00 AM 42.9°F6.1°C 40.2°F4.6°C 90% 13.1 mph SW21.1 kmh SW 14.0 mph22.5 kmh 29.43 in996.6 mb - 0.00 in0.0 mm 0.00 in0.0 mm
03:50 AM 42.9°F6.1°C 40.2°F4.6°C 90% 10.2 mph SW16.4 kmh SW 15.0 mph24.1 kmh 29.43 in996.6 mb - 0.00 in0.0 mm 0.00 in0.0 mm
03:40 AM 43.4°F6.3°C 40.1°F4.5°C 88% 12.7 mph SW20.4 kmh SW 18.0 mph29.0 kmh 29.44 in997.0 mb - 0.00 in0.0 mm 0.00 in0.0 mm
03:30 AM 44.4°F6.9°C 39.6°F4.2°C 83% 16.3 mph SW26.2 kmh SW 26.0 mph41.8 kmh 29.43 in996.6 mb - 0.00 in0.0 mm 0.00 in0.0 mm
03:20 AM 45.1°F7.3°C 39.0°F3.9°C 79% 17.2 mph WSW27.7 kmh WSW 26.0 mph41.8 kmh 29.44 in997.0 mb - 0.00 in0.0 mm 0.00 in0.0 mm
03:10 AM 44.9°F7.2°C 38.8°F3.8°C 79% 13.0 mph S20.9 kmh S 17.0 mph27.4 kmh 29.43 in996.6 mb - 0.00 in0.0 mm 0.00 in0.0 mm
03:00 AM 44.9°F7.2°C 38.4°F3.6°C 78% 13.6 mph SW21.9 kmh SW 23.0 mph37.0 kmh 29.43 in996.6 mb - 0.00 in0.0 mm 0.00 in0.0 mm
02:50 AM 44.7°F7.1°C 38.3°F3.5°C 78% 13.6 mph SW21.9 kmh SW 17.0 mph27.4 kmh 29.43 in996.6 mb - 0.00 in0.0 mm 0.00 in0.0 mm
02:40 AM 44.8°F7.1°C 38.4°F3.6°C 78% 19.4 mph SW31.2 kmh SW 29.0 mph46.7 kmh 29.43 in996.6 mb - 0.00 in0.0 mm 0.00 in0.0 mm
02:30 AM 44.9°F7.2°C 38.1°F3.4°C 77% 14.4 mph SW23.2 kmh SW 20.0 mph32.2 kmh 29.43 in996.6 mb - 0.00 in0.0 mm 0.00 in0.0 mm
02:20 AM 44.9°F7.2°C 38.1°F3.4°C 77% 20.9 mph SW33.6 kmh SW 31.0 mph49.9 kmh 29.43 in996.6 mb - 0.00 in0.0 mm 0.00 in0.0 mm
02:10 AM 45.0°F7.2°C 38.2°F3.4°C 77% 19.3 mph SW31.1 kmh SW 27.0 mph43.5 kmh 29.43 in996.6 mb - 0.00 in0.0 mm 0.00 in0.0 mm
02:00 AM 44.8°F7.1°C 38.4°F3.6°C 78% 15.7 mph SW25.3 kmh SW 24.0 mph38.6 kmh 29.44 in997.0 mb - 0.00 in0.0 mm 0.00 in0.0 mm
01:50 AM 44.9°F7.2°C 38.5°F3.6°C 78% 16.6 mph SSW26.7 kmh SSW 24.0 mph38.6 kmh 29.44 in997.0 mb - 0.00 in0.0 mm 0.00 in0.0 mm
01:40 AM 44.9°F7.2°C 38.5°F3.6°C 78% 20.4 mph SW32.8 kmh SW 28.0 mph45.1 kmh 29.44 in997.0 mb - 0.00 in0.0 mm 0.00 in0.0 mm
01:30 AM 44.9°F7.2°C 38.5°F3.6°C 78% 20.4 mph WSW32.8 kmh WSW 22.0 mph35.4 kmh 29.44 in997.0 mb - 0.00 in0.0 mm 0.00 in0.0 mm
01:20 AM 44.8°F7.1°C 38.7°F3.7°C 79% 18.5 mph SW29.8 kmh SW 26.0 mph41.8 kmh 29.44 in997.0 mb - 0.00 in0.0 mm 0.00 in0.0 mm
01:10 AM 44.9°F7.2°C 38.5°F3.6°C 78% 18.8 mph SW30.3 kmh SW 25.0 mph40.2 kmh 29.44 in997.0 mb - 0.00 in0.0 mm 0.00 in0.0 mm
01:00 AM 44.7°F7.1°C 38.6°F3.7°C 79% 16.1 mph SW25.9 kmh SW 24.0 mph38.6 kmh 29.43 in996.6 mb - 0.00 in0.0 mm 0.00 in0.0 mm
12:50 AM 44.8°F7.1°C 38.6°F3.7°C 79% 18.0 mph SW29.0 kmh SW 24.0 mph38.6 kmh 29.43 in996.6 mb - 0.00 in0.0 mm 0.00 in0.0 mm
12:40 AM 44.9°F7.2°C 38.5°F3.6°C 78% 17.1 mph SW27.5 kmh SW 24.0 mph38.6 kmh 29.43 in996.6 mb - 0.00 in0.0 mm 0.00 in0.0 mm
12:30 AM 44.7°F7.1°C 38.6°F3.7°C 79% 15.1 mph SW24.3 kmh SW 20.0 mph32.2 kmh 29.43 in996.6 mb - 0.00 in0.0 mm 0.00 in0.0 mm
12:20 AM 44.5°F6.9°C 38.4°F3.6°C 79% 17.2 mph SSW27.7 kmh SSW 24.0 mph38.6 kmh 29.43 in996.6 mb - 0.00 in0.0 mm 0.00 in0.0 mm
12:10 AM 44.7°F7.1°C 38.2°F3.4°C 78% 17.7 mph SSW28.5 kmh SSW 29.0 mph46.7 kmh 29.43 in996.6 mb - 0.00 in0.0 mm 0.00 in0.0 mm
12:00 AM 45.0°F7.2°C 38.2°F3.4°C 77% 16.3 mph SW26.2 kmh SW 18.0 mph29.0 kmh 29.43 in996.6 mb - 0.00 in0.0 mm 0.00 in0.0 mm